sensor_id;sensor_type;location;lat;lon;timestamp;P1;durP1;ratioP1;P2;durP2;ratioP2
69220;SDS011;56331;51.992;20.910;2022-09-21T00:01:08;2.52;;;1.80;;
69220;SDS011;56331;51.992;20.910;2022-09-21T00:06:03;3.67;;;1.80;;
69220;SDS011;56331;51.992;20.910;2022-09-21T00:08:30;2.25;;;1.50;;
69220;SDS011;56331;51.992;20.910;2022-09-21T00:10:57;2.27;;;1.67;;
69220;SDS011;56331;51.992;20.910;2022-09-21T00:13:25;2.35;;;1.60;;
69220;SDS011;56331;51.992;20.910;2022-09-21T00:15:55;3.02;;;1.85;;
69220;SDS011;56331;51.992;20.910;2022-09-21T00:18:22;2.08;;;1.50;;
69220;SDS011;56331;51.992;20.910;2022-09-21T00:20:49;1.75;;;1.60;;
69220;SDS011;56331;51.992;20.910;2022-09-21T00:23:17;2.00;;;1.60;;
69220;SDS011;56331;51.992;20.910;2022-09-21T00:25:45;2.60;;;1.45;;
69220;SDS011;56331;51.992;20.910;2022-09-21T00:28:11;2.40;;;1.60;;
69220;SDS011;56331;51.992;20.910;2022-09-21T00:30:38;1.80;;;1.35;;
69220;SDS011;56331;51.992;20.910;2022-09-21T00:33:04;3.10;;;1.47;;
69220;SDS011;56331;51.992;20.910;2022-09-21T00:35:31;2.52;;;1.50;;
69220;SDS011;56331;51.992;20.910;2022-09-21T00:38:01;2.00;;;1.57;;
69220;SDS011;56331;51.992;20.910;2022-09-21T00:40:28;2.22;;;1.50;;
69220;SDS011;56331;51.992;20.910;2022-09-21T00:43:13;2.40;;;1.50;;
69220;SDS011;56331;51.992;20.910;2022-09-21T00:45:41;2.12;;;1.50;;
69220;SDS011;56331;51.992;20.910;2022-09-21T00:48:09;2.42;;;1.52;;
69220;SDS011;56331;51.992;20.910;2022-09-21T00:50:35;2.12;;;1.47;;
69220;SDS011;56331;51.992;20.910;2022-09-21T00:55:32;2.02;;;1.55;;
69220;SDS011;56331;51.992;20.910;2022-09-21T00:58:03;2.02;;;1.50;;
69220;SDS011;56331;51.992;20.910;2022-09-21T01:00:34;1.77;;;1.40;;
69220;SDS011;56331;51.992;20.910;2022-09-21T01:03:01;2.02;;;1.32;;
69220;SDS011;56331;51.992;20.910;2022-09-21T01:05:29;2.27;;;1.52;;
69220;SDS011;56331;51.992;20.910;2022-09-21T01:07:56;1.70;;;1.30;;
69220;SDS011;56331;51.992;20.910;2022-09-21T01:21:25;1.60;;;1.30;;
69220;SDS011;56331;51.992;20.910;2022-09-21T01:29:30;1.65;;;1.20;;
69220;SDS011;56331;51.992;20.910;2022-09-21T01:32:08;2.10;;;1.80;;
69220;SDS011;56331;51.992;20.910;2022-09-21T01:34:43;2.60;;;1.50;;
69220;SDS011;56331;51.992;20.910;2022-09-21T01:37:25;2.40;;;1.40;;
69220;SDS011;56331;51.992;20.910;2022-09-21T01:42:21;1.87;;;1.40;;
69220;SDS011;56331;51.992;20.910;2022-09-21T01:44:51;2.70;;;1.50;;
69220;SDS011;56331;51.992;20.910;2022-09-21T01:47:20;2.25;;;1.50;;
69220;SDS011;56331;51.992;20.910;2022-09-21T01:49:49;2.60;;;1.12;;
69220;SDS011;56331;51.992;20.910;2022-09-21T01:54:56;1.95;;;1.47;;
69220;SDS011;56331;51.992;20.910;2022-09-21T01:57:41;2.33;;;1.35;;
69220;SDS011;56331;51.992;20.910;2022-09-21T02:00:25;1.72;;;1.30;;
69220;SDS011;56331;51.992;20.910;2022-09-21T02:03:17;2.08;;;1.67;;
69220;SDS011;56331;51.992;20.910;2022-09-21T02:08:07;3.30;;;1.60;;
69220;SDS011;56331;51.992;20.910;2022-09-21T02:10:36;1.98;;;1.27;;
69220;SDS011;56331;51.992;20.910;2022-09-21T02:18:34;3.05;;;1.62;;
69220;SDS011;56331;51.992;20.910;2022-09-21T02:21:12;1.52;;;1.27;;
69220;SDS011;56331;51.992;20.910;2022-09-21T02:24:03;2.02;;;1.37;;
69220;SDS011;56331;51.992;20.910;2022-09-21T02:26:39;1.70;;;1.40;;
69220;SDS011;56331;51.992;20.910;2022-09-21T02:29:04;2.12;;;1.42;;
69220;SDS011;56331;51.992;20.910;2022-09-21T02:37:16;1.82;;;1.50;;
69220;SDS011;56331;51.992;20.910;2022-09-21T02:39:55;2.05;;;1.47;;
69220;SDS011;56331;51.992;20.910;2022-09-21T02:42:27;2.62;;;1.50;;
69220;SDS011;56331;51.992;20.910;2022-09-21T02:45:07;1.90;;;1.37;;
69220;SDS011;56331;51.992;20.910;2022-09-21T02:47:45;2.15;;;1.67;;
69220;SDS011;56331;51.992;20.910;2022-09-21T02:50:37;1.98;;;1.52;;
69220;SDS011;56331;51.992;20.910;2022-09-21T02:53:03;2.17;;;1.52;;
69220;SDS011;56331;51.992;20.910;2022-09-21T02:55:32;2.08;;;1.62;;
69220;SDS011;56331;51.992;20.910;2022-09-21T02:58:00;1.82;;;1.40;;
69220;SDS011;56331;51.992;20.910;2022-09-21T03:00:33;1.85;;;1.50;;
69220;SDS011;56331;51.992;20.910;2022-09-21T03:03:12;3.35;;;1.50;;
69220;SDS011;56331;51.992;20.910;2022-09-21T03:05:44;2.00;;;1.62;;
69220;SDS011;56331;51.992;20.910;2022-09-21T03:08:11;2.05;;;1.50;;
69220;SDS011;56331;51.992;20.910;2022-09-21T03:10:39;1.65;;;1.40;;
69220;SDS011;56331;51.992;20.910;2022-09-21T03:13:06;2.40;;;1.55;;
69220;SDS011;56331;51.992;20.910;2022-09-21T03:15:38;2.27;;;1.60;;
69220;SDS011;56331;51.992;20.910;2022-09-21T03:18:03;2.37;;;1.57;;
69220;SDS011;56331;51.992;20.910;2022-09-21T03:20:31;2.33;;;1.62;;
69220;SDS011;56331;51.992;20.910;2022-09-21T03:22:58;2.72;;;1.98;;
69220;SDS011;56331;51.992;20.910;2022-09-21T03:25:25;1.42;;;1.32;;
69220;SDS011;56331;51.992;20.910;2022-09-21T03:27:52;2.17;;;1.52;;
69220;SDS011;56331;51.992;20.910;2022-09-21T03:30:19;2.40;;;1.70;;
69220;SDS011;56331;51.992;20.910;2022-09-21T03:32:48;2.12;;;1.50;;
69220;SDS011;56331;51.992;20.910;2022-09-21T03:35:16;1.80;;;1.50;;
69220;SDS011;56331;51.992;20.910;2022-09-21T03:37:43;3.08;;;1.57;;
69220;SDS011;56331;51.992;20.910;2022-09-21T03:40:10;2.00;;;1.50;;
69220;SDS011;56331;51.992;20.910;2022-09-21T03:42:38;2.35;;;1.70;;
69220;SDS011;56331;51.992;20.910;2022-09-21T03:45:06;1.90;;;1.67;;
69220;SDS011;56331;51.992;20.910;2022-09-21T03:50:02;2.65;;;1.35;;
69220;SDS011;56331;51.992;20.910;2022-09-21T03:52:31;2.17;;;1.85;;
69220;SDS011;56331;51.992;20.910;2022-09-21T03:54:57;1.72;;;1.60;;
69220;SDS011;56331;51.992;20.910;2022-09-21T03:57:23;1.72;;;1.52;;
69220;SDS011;56331;51.992;20.910;2022-09-21T03:59:50;1.42;;;1.30;;
69220;SDS011;56331;51.992;20.910;2022-09-21T04:02:18;1.62;;;1.40;;
69220;SDS011;56331;51.992;20.910;2022-09-21T04:04:45;1.50;;;1.37;;
69220;SDS011;56331;51.992;20.910;2022-09-21T04:07:12;1.75;;;1.30;;
69220;SDS011;56331;51.992;20.910;2022-09-21T04:09:40;1.70;;;1.50;;
69220;SDS011;56331;51.992;20.910;2022-09-21T04:12:06;1.65;;;1.30;;
69220;SDS011;56331;51.992;20.910;2022-09-21T04:14:33;1.90;;;1.30;;
69220;SDS011;56331;51.992;20.910;2022-09-21T04:16:59;1.90;;;1.40;;
69220;SDS011;56331;51.992;20.910;2022-09-21T04:19:25;1.27;;;1.17;;
69220;SDS011;56331;51.992;20.910;2022-09-21T04:21:52;1.90;;;1.32;;
69220;SDS011;56331;51.992;20.910;2022-09-21T04:24:20;1.95;;;1.47;;
69220;SDS011;56331;51.992;20.910;2022-09-21T04:26:46;3.00;;;1.20;;
69220;SDS011;56331;51.992;20.910;2022-09-21T04:29:13;1.45;;;1.10;;
69220;SDS011;56331;51.992;20.910;2022-09-21T04:31:41;2.10;;;1.45;;
69220;SDS011;56331;51.992;20.910;2022-09-21T04:34:08;1.60;;;1.20;;
69220;SDS011;56331;51.992;20.910;2022-09-21T04:39:04;2.02;;;1.40;;
69220;SDS011;56331;51.992;20.910;2022-09-21T04:41:30;1.60;;;1.15;;
69220;SDS011;56331;51.992;20.910;2022-09-21T04:43:57;1.55;;;1.35;;
69220;SDS011;56331;51.992;20.910;2022-09-21T04:46:24;1.30;;;1.20;;
69220;SDS011;56331;51.992;20.910;2022-09-21T04:48:51;1.75;;;1.40;;
69220;SDS011;56331;51.992;20.910;2022-09-21T04:51:17;1.80;;;1.32;;
69220;SDS011;56331;51.992;20.910;2022-09-21T04:53:44;1.80;;;1.40;;
69220;SDS011;56331;51.992;20.910;2022-09-21T04:56:12;1.12;;;1.00;;
69220;SDS011;56331;51.992;20.910;2022-09-21T04:58:39;1.82;;;1.02;;
69220;SDS011;56331;51.992;20.910;2022-09-21T05:01:05;1.90;;;1.30;;
69220;SDS011;56331;51.992;20.910;2022-09-21T05:03:32;1.80;;;1.40;;
69220;SDS011;56331;51.992;20.910;2022-09-21T05:05:59;1.40;;;1.30;;
69220;SDS011;56331;51.992;20.910;2022-09-21T05:08:26;1.90;;;1.37;;
69220;SDS011;56331;51.992;20.910;2022-09-21T05:11:12;1.30;;;1.20;;
69220;SDS011;56331;51.992;20.910;2022-09-21T05:13:40;3.70;;;1.40;;
69220;SDS011;56331;51.992;20.910;2022-09-21T05:16:07;1.60;;;1.20;;
69220;SDS011;56331;51.992;20.910;2022-09-21T05:18:43;3.35;;;1.62;;
69220;SDS011;56331;51.992;20.910;2022-09-21T05:21:11;3.47;;;1.50;;
69220;SDS011;56331;51.992;20.910;2022-09-21T05:23:38;2.70;;;1.37;;
69220;SDS011;56331;51.992;20.910;2022-09-21T05:26:04;3.17;;;1.50;;
69220;SDS011;56331;51.992;20.910;2022-09-21T05:28:31;1.87;;;1.35;;
69220;SDS011;56331;51.992;20.910;2022-09-21T05:33:31;5.12;;;1.20;;
69220;SDS011;56331;51.992;20.910;2022-09-21T05:36:10;1.75;;;1.37;;
69220;SDS011;56331;51.992;20.910;2022-09-21T05:38:45;3.12;;;1.45;;
69220;SDS011;56331;51.992;20.910;2022-09-21T05:41:12;2.77;;;1.80;;
69220;SDS011;56331;51.992;20.910;2022-09-21T05:43:39;1.77;;;1.02;;
69220;SDS011;56331;51.992;20.910;2022-09-21T05:46:15;3.70;;;1.47;;
69220;SDS011;56331;51.992;20.910;2022-09-21T05:48:39;3.12;;;1.50;;
69220;SDS011;56331;51.992;20.910;2022-09-21T05:51:10;2.15;;;1.37;;
69220;SDS011;56331;51.992;20.910;2022-09-21T05:59:35;2.52;;;1.50;;
69220;SDS011;56331;51.992;20.910;2022-09-21T06:02:15;2.72;;;1.62;;
69220;SDS011;56331;51.992;20.910;2022-09-21T06:04:48;1.90;;;1.40;;
69220;SDS011;56331;51.992;20.910;2022-09-21T06:07:16;1.60;;;1.40;;
69220;SDS011;56331;51.992;20.910;2022-09-21T06:09:42;1.77;;;1.42;;
69220;SDS011;56331;51.992;20.910;2022-09-21T06:12:10;2.30;;;1.52;;
69220;SDS011;56331;51.992;20.910;2022-09-21T06:14:37;2.17;;;1.47;;
69220;SDS011;56331;51.992;20.910;2022-09-21T06:17:03;2.62;;;1.15;;
69220;SDS011;56331;51.992;20.910;2022-09-21T06:19:29;1.80;;;1.50;;
69220;SDS011;56331;51.992;20.910;2022-09-21T06:21:56;3.27;;;1.60;;
69220;SDS011;56331;51.992;20.910;2022-09-21T06:24:22;2.33;;;1.40;;
69220;SDS011;56331;51.992;20.910;2022-09-21T06:26:48;1.50;;;1.20;;
69220;SDS011;56331;51.992;20.910;2022-09-21T06:29:15;2.30;;;1.25;;
69220;SDS011;56331;51.992;20.910;2022-09-21T06:31:43;1.98;;;1.17;;
69220;SDS011;56331;51.992;20.910;2022-09-21T06:34:10;1.80;;;1.55;;
69220;SDS011;56331;51.992;20.910;2022-09-21T06:36:36;2.52;;;1.50;;
69220;SDS011;56331;51.992;20.910;2022-09-21T06:39:03;2.08;;;1.50;;
69220;SDS011;56331;51.992;20.910;2022-09-21T06:41:29;3.92;;;1.10;;
69220;SDS011;56331;51.992;20.910;2022-09-21T06:43:56;1.62;;;1.20;;
69220;SDS011;56331;51.992;20.910;2022-09-21T06:46:24;6.70;;;1.20;;
69220;SDS011;56331;51.992;20.910;2022-09-21T06:48:51;1.52;;;1.00;;
69220;SDS011;56331;51.992;20.910;2022-09-21T06:51:17;1.75;;;1.22;;
69220;SDS011;56331;51.992;20.910;2022-09-21T06:53:45;1.87;;;1.20;;
69220;SDS011;56331;51.992;20.910;2022-09-21T06:56:12;1.87;;;1.25;;
69220;SDS011;56331;51.992;20.910;2022-09-21T06:58:38;2.75;;;1.32;;
69220;SDS011;56331;51.992;20.910;2022-09-21T07:01:06;1.40;;;1.10;;
69220;SDS011;56331;51.992;20.910;2022-09-21T07:03:34;1.98;;;1.20;;
69220;SDS011;56331;51.992;20.910;2022-09-21T07:06:02;4.62;;;1.10;;
69220;SDS011;56331;51.992;20.910;2022-09-21T07:08:29;4.50;;;1.50;;
69220;SDS011;56331;51.992;20.910;2022-09-21T07:10:59;4.10;;;1.12;;
69220;SDS011;56331;51.992;20.910;2022-09-21T07:13:31;4.92;;;1.15;;
69220;SDS011;56331;51.992;20.910;2022-09-21T07:15:57;5.55;;;1.82;;
69220;SDS011;56331;51.992;20.910;2022-09-21T07:18:24;3.33;;;1.30;;
69220;SDS011;56331;51.992;20.910;2022-09-21T07:20:50;2.30;;;1.20;;
69220;SDS011;56331;51.992;20.910;2022-09-21T07:23:17;3.62;;;1.22;;
69220;SDS011;56331;51.992;20.910;2022-09-21T07:25:46;3.33;;;1.10;;
69220;SDS011;56331;51.992;20.910;2022-09-21T07:28:17;2.62;;;1.30;;
69220;SDS011;56331;51.992;20.910;2022-09-21T07:30:44;2.22;;;1.10;;
69220;SDS011;56331;51.992;20.910;2022-09-21T07:33:10;3.20;;;1.12;;
69220;SDS011;56331;51.992;20.910;2022-09-21T07:35:36;3.40;;;1.12;;
69220;SDS011;56331;51.992;20.910;2022-09-21T07:38:04;1.37;;;0.98;;
69220;SDS011;56331;51.992;20.910;2022-09-21T07:40:32;1.90;;;1.10;;
69220;SDS011;56331;51.992;20.910;2022-09-21T07:42:59;2.65;;;1.10;;
69220;SDS011;56331;51.992;20.910;2022-09-21T07:45:29;1.45;;;1.00;;
69220;SDS011;56331;51.992;20.910;2022-09-21T07:48:05;3.15;;;0.90;;
69220;SDS011;56331;51.992;20.910;2022-09-21T07:50:33;1.60;;;1.10;;
69220;SDS011;56331;51.992;20.910;2022-09-21T07:53:00;2.65;;;1.05;;
69220;SDS011;56331;51.992;20.910;2022-09-21T07:55:27;1.22;;;0.95;;
69220;SDS011;56331;51.992;20.910;2022-09-21T07:57:54;1.37;;;0.98;;
69220;SDS011;56331;51.992;20.910;2022-09-21T08:00:38;2.17;;;1.12;;
69220;SDS011;56331;51.992;20.910;2022-09-21T08:03:05;1.30;;;0.90;;
69220;SDS011;56331;51.992;20.910;2022-09-21T08:05:32;1.57;;;1.20;;
69220;SDS011;56331;51.992;20.910;2022-09-21T08:07:58;2.08;;;1.27;;
69220;SDS011;56331;51.992;20.910;2022-09-21T08:10:25;2.52;;;0.90;;
69220;SDS011;56331;51.992;20.910;2022-09-21T08:12:53;3.30;;;1.00;;
69220;SDS011;56331;51.992;20.910;2022-09-21T08:15:19;1.80;;;1.30;;
69220;SDS011;56331;51.992;20.910;2022-09-21T08:17:45;1.55;;;1.05;;
69220;SDS011;56331;51.992;20.910;2022-09-21T08:20:12;2.22;;;1.00;;
69220;SDS011;56331;51.992;20.910;2022-09-21T08:22:39;2.75;;;1.10;;
69220;SDS011;56331;51.992;20.910;2022-09-21T08:25:05;1.77;;;1.00;;
69220;SDS011;56331;51.992;20.910;2022-09-21T08:27:32;3.50;;;1.02;;
69220;SDS011;56331;51.992;20.910;2022-09-21T08:29:58;1.52;;;1.07;;
69220;SDS011;56331;51.992;20.910;2022-09-21T08:32:24;2.50;;;1.10;;
69220;SDS011;56331;51.992;20.910;2022-09-21T08:34:51;4.40;;;1.00;;
69220;SDS011;56331;51.992;20.910;2022-09-21T08:37:17;2.22;;;0.90;;
69220;SDS011;56331;51.992;20.910;2022-09-21T08:39:45;12.95;;;1.77;;
69220;SDS011;56331;51.992;20.910;2022-09-21T08:45:04;2.20;;;1.10;;
69220;SDS011;56331;51.992;20.910;2022-09-21T08:52:32;1.27;;;0.85;;
69220;SDS011;56331;51.992;20.910;2022-09-21T08:55:00;1.27;;;0.82;;
69220;SDS011;56331;51.992;20.910;2022-09-21T08:57:29;2.67;;;1.00;;
69220;SDS011;56331;51.992;20.910;2022-09-21T08:59:58;1.25;;;0.90;;
69220;SDS011;56331;51.992;20.910;2022-09-21T09:05:05;1.22;;;1.00;;
69220;SDS011;56331;51.992;20.910;2022-09-21T09:16:35;2.52;;;0.90;;
69220;SDS011;56331;51.992;20.910;2022-09-21T09:19:11;1.52;;;0.80;;
69220;SDS011;56331;51.992;20.910;2022-09-21T09:21:52;2.17;;;1.10;;
69220;SDS011;56331;51.992;20.910;2022-09-21T09:24:30;1.40;;;0.85;;
69220;SDS011;56331;51.992;20.910;2022-09-21T09:27:10;1.87;;;1.00;;
69220;SDS011;56331;51.992;20.910;2022-09-21T09:29:47;2.12;;;0.93;;
69220;SDS011;56331;51.992;20.910;2022-09-21T09:32:14;2.05;;;1.17;;
69220;SDS011;56331;51.992;20.910;2022-09-21T09:34:44;1.87;;;1.00;;
69220;SDS011;56331;51.992;20.910;2022-09-21T09:39:40;1.67;;;0.90;;
69220;SDS011;56331;51.992;20.910;2022-09-21T09:44:45;1.02;;;0.80;;
69220;SDS011;56331;51.992;20.910;2022-09-21T09:52:48;1.70;;;0.82;;
69220;SDS011;56331;51.992;20.910;2022-09-21T09:57:48;2.02;;;0.80;;
69220;SDS011;56331;51.992;20.910;2022-09-21T10:00:16;0.98;;;0.65;;
69220;SDS011;56331;51.992;20.910;2022-09-21T10:02:49;1.02;;;0.65;;
69220;SDS011;56331;51.992;20.910;2022-09-21T10:07:50;1.20;;;0.70;;
69220;SDS011;56331;51.992;20.910;2022-09-21T10:10:21;1.10;;;0.70;;
69220;SDS011;56331;51.992;20.910;2022-09-21T10:12:49;2.17;;;0.62;;
69220;SDS011;56331;51.992;20.910;2022-09-21T10:17:47;1.25;;;0.72;;
69220;SDS011;56331;51.992;20.910;2022-09-21T10:20:16;1.98;;;1.00;;
69220;SDS011;56331;51.992;20.910;2022-09-21T10:22:46;2.08;;;0.80;;
69220;SDS011;56331;51.992;20.910;2022-09-21T10:25:15;0.90;;;0.50;;
69220;SDS011;56331;51.992;20.910;2022-09-21T10:27:44;1.50;;;0.65;;
69220;SDS011;56331;51.992;20.910;2022-09-21T10:33:03;1.67;;;0.82;;
69220;SDS011;56331;51.992;20.910;2022-09-21T10:35:33;1.10;;;0.57;;
69220;SDS011;56331;51.992;20.910;2022-09-21T10:38:09;0.88;;;0.55;;
69220;SDS011;56331;51.992;20.910;2022-09-21T10:40:38;3.50;;;0.80;;
69220;SDS011;56331;51.992;20.910;2022-09-21T10:43:05;1.10;;;0.60;;
69220;SDS011;56331;51.992;20.910;2022-09-21T10:45:33;1.75;;;0.80;;
69220;SDS011;56331;51.992;20.910;2022-09-21T10:58:30;1.72;;;0.62;;
69220;SDS011;56331;51.992;20.910;2022-09-21T11:01:11;1.65;;;0.70;;
69220;SDS011;56331;51.992;20.910;2022-09-21T11:03:50;1.52;;;0.70;;
69220;SDS011;56331;51.992;20.910;2022-09-21T11:06:36;6.12;;;0.70;;
69220;SDS011;56331;51.992;20.910;2022-09-21T11:14:36;1.87;;;0.57;;
69220;SDS011;56331;51.992;20.910;2022-09-21T11:25:18;2.62;;;0.50;;
69220;SDS011;56331;51.992;20.910;2022-09-21T11:27:58;1.35;;;0.70;;
69220;SDS011;56331;51.992;20.910;2022-09-21T11:30:26;0.95;;;0.60;;
69220;SDS011;56331;51.992;20.910;2022-09-21T11:41:05;0.40;;;0.40;;
69220;SDS011;56331;51.992;20.910;2022-09-21T11:48:56;3.42;;;0.70;;
69220;SDS011;56331;51.992;20.910;2022-09-21T11:54:30;0.62;;;0.42;;
69220;SDS011;56331;51.992;20.910;2022-09-21T11:57:25;2.08;;;0.50;;
69220;SDS011;56331;51.992;20.910;2022-09-21T12:13:55;1.15;;;0.60;;
69220;SDS011;56331;51.992;20.910;2022-09-21T12:22:06;0.50;;;0.50;;
69220;SDS011;56331;51.992;20.910;2022-09-21T12:24:46;1.00;;;0.60;;
69220;SDS011;56331;51.992;20.910;2022-09-21T12:27:25;1.52;;;0.50;;
69220;SDS011;56331;51.992;20.910;2022-09-21T12:30:26;0.93;;;0.42;;
69220;SDS011;56331;51.992;20.910;2022-09-21T12:32:43;0.40;;;0.33;;
69220;SDS011;56331;51.992;20.910;2022-09-21T12:35:14;0.82;;;0.55;;
69220;SDS011;56331;51.992;20.910;2022-09-21T12:37:48;1.22;;;0.70;;
69220;SDS011;56331;51.992;20.910;2022-09-21T12:40:20;1.60;;;0.60;;
69220;SDS011;56331;51.992;20.910;2022-09-21T12:45:38;1.60;;;0.60;;
69220;SDS011;56331;51.992;20.910;2022-09-21T12:48:37;0.72;;;0.53;;
69220;SDS011;56331;51.992;20.910;2022-09-21T12:53:50;1.02;;;0.60;;
69220;SDS011;56331;51.992;20.910;2022-09-21T12:59:12;1.32;;;0.57;;
69220;SDS011;56331;51.992;20.910;2022-09-21T13:01:47;0.50;;;0.40;;
69220;SDS011;56331;51.992;20.910;2022-09-21T13:09:47;3.05;;;0.50;;
69220;SDS011;56331;51.992;20.910;2022-09-21T13:12:26;1.40;;;0.70;;
69220;SDS011;56331;51.992;20.910;2022-09-21T13:15:00;2.92;;;0.80;;
69220;SDS011;56331;51.992;20.910;2022-09-21T13:20:02;0.93;;;0.70;;
69220;SDS011;56331;51.992;20.910;2022-09-21T13:22:45;1.65;;;0.90;;
69220;SDS011;56331;51.992;20.910;2022-09-21T13:25:23;2.15;;;0.78;;
69220;SDS011;56331;51.992;20.910;2022-09-21T13:27:58;2.42;;;0.72;;
69220;SDS011;56331;51.992;20.910;2022-09-21T13:30:48;0.93;;;0.50;;
69220;SDS011;56331;51.992;20.910;2022-09-21T13:38:31;1.57;;;0.70;;
69220;SDS011;56331;51.992;20.910;2022-09-21T13:49:12;2.40;;;0.50;;
69220;SDS011;56331;51.992;20.910;2022-09-21T13:54:33;0.62;;;0.60;;
69220;SDS011;56331;51.992;20.910;2022-09-21T14:05:28;2.20;;;0.50;;
69220;SDS011;56331;51.992;20.910;2022-09-21T14:10:47;1.87;;;0.50;;
69220;SDS011;56331;51.992;20.910;2022-09-21T14:13:23;3.75;;;0.42;;
69220;SDS011;56331;51.992;20.910;2022-09-21T14:15:54;1.57;;;0.30;;
69220;SDS011;56331;51.992;20.910;2022-09-21T14:18:43;0.60;;;0.33;;
69220;SDS011;56331;51.992;20.910;2022-09-21T14:23:36;0.90;;;0.30;;
69220;SDS011;56331;51.992;20.910;2022-09-21T14:26:19;1.00;;;0.30;;
69220;SDS011;56331;51.992;20.910;2022-09-21T14:28:49;0.88;;;0.35;;
69220;SDS011;56331;51.992;20.910;2022-09-21T14:31:30;4.35;;;0.62;;
69220;SDS011;56331;51.992;20.910;2022-09-21T14:33:59;2.50;;;0.40;;
69220;SDS011;56331;51.992;20.910;2022-09-21T14:39:02;3.02;;;0.30;;
69220;SDS011;56331;51.992;20.910;2022-09-21T14:41:35;1.63;;;0.70;;
69220;SDS011;56331;51.992;20.910;2022-09-21T14:46:45;0.80;;;0.35;;
69220;SDS011;56331;51.992;20.910;2022-09-21T14:57:27;1.15;;;0.40;;
69220;SDS011;56331;51.992;20.910;2022-09-21T15:00:36;0.80;;;0.50;;
69220;SDS011;56331;51.992;20.910;2022-09-21T15:02:42;0.47;;;0.35;;
69220;SDS011;56331;51.992;20.910;2022-09-21T15:05:17;0.80;;;0.40;;
69220;SDS011;56331;51.992;20.910;2022-09-21T15:10:46;1.75;;;0.40;;
69220;SDS011;56331;51.992;20.910;2022-09-21T15:24:57;1.27;;;0.40;;
69220;SDS011;56331;51.992;20.910;2022-09-21T15:27:30;0.50;;;0.30;;
69220;SDS011;56331;51.992;20.910;2022-09-21T15:29:57;1.27;;;0.37;;
69220;SDS011;56331;51.992;20.910;2022-09-21T15:32:40;0.45;;;0.30;;
69220;SDS011;56331;51.992;20.910;2022-09-21T15:37:53;0.47;;;0.30;;
69220;SDS011;56331;51.992;20.910;2022-09-21T15:40:24;0.55;;;0.30;;
69220;SDS011;56331;51.992;20.910;2022-09-21T15:45:47;0.90;;;0.50;;
69220;SDS011;56331;51.992;20.910;2022-09-21T15:48:02;0.30;;;0.30;;
69220;SDS011;56331;51.992;20.910;2022-09-21T15:50:33;0.47;;;0.30;;
69220;SDS011;56331;51.992;20.910;2022-09-21T15:53:02;0.50;;;0.30;;
69220;SDS011;56331;51.992;20.910;2022-09-21T15:55:31;0.40;;;0.37;;
69220;SDS011;56331;51.992;20.910;2022-09-21T15:57:58;0.80;;;0.40;;
69220;SDS011;56331;51.992;20.910;2022-09-21T16:00:26;3.00;;;0.88;;
69220;SDS011;56331;51.992;20.910;2022-09-21T16:05:29;2.00;;;0.70;;
69220;SDS011;56331;51.992;20.910;2022-09-21T16:08:05;1.50;;;0.70;;
69220;SDS011;56331;51.992;20.910;2022-09-21T16:16:10;1.02;;;0.60;;
69220;SDS011;56331;51.992;20.910;2022-09-21T16:18:47;2.80;;;0.70;;
69220;SDS011;56331;51.992;20.910;2022-09-21T16:21:22;3.33;;;0.70;;
69220;SDS011;56331;51.992;20.910;2022-09-21T16:24:18;2.60;;;0.60;;
69220;SDS011;56331;51.992;20.910;2022-09-21T16:26:56;1.70;;;0.57;;
69220;SDS011;56331;51.992;20.910;2022-09-21T16:29:26;2.17;;;0.70;;
69220;SDS011;56331;51.992;20.910;2022-09-21T16:45:47;2.10;;;0.60;;
69220;SDS011;56331;51.992;20.910;2022-09-21T16:48:13;1.35;;;0.60;;
69220;SDS011;56331;51.992;20.910;2022-09-21T16:50:40;2.58;;;0.60;;
69220;SDS011;56331;51.992;20.910;2022-09-21T16:53:08;2.52;;;0.50;;
69220;SDS011;56331;51.992;20.910;2022-09-21T16:55:35;3.02;;;0.55;;
69220;SDS011;56331;51.992;20.910;2022-09-21T16:58:01;3.47;;;0.80;;
69220;SDS011;56331;51.992;20.910;2022-09-21T17:00:29;4.08;;;0.80;;
69220;SDS011;56331;51.992;20.910;2022-09-21T17:02:58;8.13;;;0.93;;
69220;SDS011;56331;51.992;20.910;2022-09-21T17:05:25;3.83;;;1.12;;
69220;SDS011;56331;51.992;20.910;2022-09-21T17:07:55;3.02;;;0.50;;
69220;SDS011;56331;51.992;20.910;2022-09-21T17:10:24;3.80;;;0.80;;
69220;SDS011;56331;51.992;20.910;2022-09-21T17:12:54;5.35;;;1.00;;
69220;SDS011;56331;51.992;20.910;2022-09-21T17:15:20;4.87;;;0.85;;
69220;SDS011;56331;51.992;20.910;2022-09-21T17:17:48;1.92;;;0.85;;
69220;SDS011;56331;51.992;20.910;2022-09-21T17:20:17;3.00;;;1.10;;
69220;SDS011;56331;51.992;20.910;2022-09-21T17:22:47;2.40;;;1.02;;
69220;SDS011;56331;51.992;20.910;2022-09-21T17:25:14;2.70;;;1.10;;
69220;SDS011;56331;51.992;20.910;2022-09-21T17:27:40;1.72;;;0.80;;
69220;SDS011;56331;51.992;20.910;2022-09-21T17:30:09;2.75;;;1.07;;
69220;SDS011;56331;51.992;20.910;2022-09-21T17:51:13;3.75;;;1.00;;
69220;SDS011;56331;51.992;20.910;2022-09-21T17:53:42;1.55;;;1.00;;
69220;SDS011;56331;51.992;20.910;2022-09-21T17:56:15;1.52;;;1.00;;
69220;SDS011;56331;51.992;20.910;2022-09-21T17:58:53;2.33;;;0.85;;
69220;SDS011;56331;51.992;20.910;2022-09-21T18:01:34;2.65;;;0.90;;
69220;SDS011;56331;51.992;20.910;2022-09-21T18:04:04;2.37;;;0.80;;
69220;SDS011;56331;51.992;20.910;2022-09-21T18:06:33;2.67;;;0.90;;
69220;SDS011;56331;51.992;20.910;2022-09-21T18:09:00;2.22;;;0.70;;
69220;SDS011;56331;51.992;20.910;2022-09-21T18:14:01;3.20;;;0.90;;
69220;SDS011;56331;51.992;20.910;2022-09-21T18:16:44;1.45;;;0.80;;
69220;SDS011;56331;51.992;20.910;2022-09-21T18:19:26;8.90;;;2.10;;
69220;SDS011;56331;51.992;20.910;2022-09-21T18:22:02;40.83;;;7.15;;
69220;SDS011;56331;51.992;20.910;2022-09-21T18:24:30;35.38;;;6.05;;
69220;SDS011;56331;51.992;20.910;2022-09-21T18:26:57;34.08;;;5.58;;
69220;SDS011;56331;51.992;20.910;2022-09-21T18:29:26;59.20;;;9.08;;
69220;SDS011;56331;51.992;20.910;2022-09-21T18:42:36;41.05;;;6.67;;
69220;SDS011;56331;51.992;20.910;2022-09-21T18:45:26;29.75;;;6.05;;
69220;SDS011;56331;51.992;20.910;2022-09-21T18:50:58;24.20;;;5.40;;
69220;SDS011;56331;51.992;20.910;2022-09-21T18:53:41;26.20;;;5.87;;
69220;SDS011;56331;51.992;20.910;2022-09-21T18:56:10;24.15;;;5.33;;
69220;SDS011;56331;51.992;20.910;2022-09-21T18:58:37;22.25;;;5.30;;
69220;SDS011;56331;51.992;20.910;2022-09-21T19:01:04;24.80;;;4.58;;
69220;SDS011;56331;51.992;20.910;2022-09-21T19:03:31;21.00;;;4.60;;
69220;SDS011;56331;51.992;20.910;2022-09-21T19:08:43;25.25;;;4.37;;
69220;SDS011;56331;51.992;20.910;2022-09-21T19:12:16;10.80;;;3.98;;
69220;SDS011;56331;51.992;20.910;2022-09-21T19:14:08;23.05;;;3.92;;
69220;SDS011;56331;51.992;20.910;2022-09-21T19:25:24;12.63;;;4.42;;
69220;SDS011;56331;51.992;20.910;2022-09-21T19:30:48;15.28;;;3.77;;
69220;SDS011;56331;51.992;20.910;2022-09-21T19:33:22;12.07;;;3.30;;
69220;SDS011;56331;51.992;20.910;2022-09-21T19:35:50;8.38;;;3.00;;
69220;SDS011;56331;51.992;20.910;2022-09-21T19:38:18;10.65;;;3.22;;
69220;SDS011;56331;51.992;20.910;2022-09-21T19:40:45;12.65;;;3.80;;
69220;SDS011;56331;51.992;20.910;2022-09-21T19:46:02;14.15;;;3.30;;
69220;SDS011;56331;51.992;20.910;2022-09-21T19:48:34;7.83;;;2.87;;
69220;SDS011;56331;51.992;20.910;2022-09-21T19:51:17;8.78;;;3.52;;
69220;SDS011;56331;51.992;20.910;2022-09-21T19:54:04;9.35;;;3.30;;
69220;SDS011;56331;51.992;20.910;2022-09-21T19:56:50;10.32;;;3.30;;
69220;SDS011;56331;51.992;20.910;2022-09-21T19:59:36;10.60;;;3.45;;
69220;SDS011;56331;51.992;20.910;2022-09-21T20:02:12;9.35;;;3.47;;